Time;durP1;ratioP1;P1;durP2;ratioP2;P2;SDS_P1;SDS_P2;PMS_P1;PMS_P2;Temp;Humidity;BMP_temperature;BMP_pressure;BME280_temperature;BME280_humidity;BME280_pressure;Samples;Min_cycle;Max_cycle;Signal;HPM_P1;HPM_P2
2021/04/18 11:07:14;;;;;;;11.05;7.28;;;;;;;11.43;46.84;100171.97;1410405;40;22227;-78
2021/04/18 11:09:23;;;;;;;8.93;6.70;;;;;;;11.47;46.68;100174.22;1458452;40;22408;-80
2021/04/18 11:11:31;;;;;;;11.25;7.72;;;;;;;11.53;46.78;100176.28;1475783;40;22615;-80
2021/04/18 11:13:40;;;;;;;10.10;7.35;;;;;;;11.54;46.53;100169.94;1458215;40;22579;-78
2021/04/18 11:15:48;;;;;;;8.63;7.03;;;;;;;11.50;46.59;100175.75;1492656;40;22301;-78
2021/04/18 11:17:57;;;;;;;12.48;6.90;;;;;;;11.47;46.70;100176.03;1512296;40;22479;-79
2021/04/18 11:20:06;;;;;;;12.15;8.48;;;;;;;11.34;46.93;100176.38;1508524;40;22397;-77
2021/04/18 11:22:14;;;;;;;13.55;8.63;;;;;;;11.21;47.36;100168.66;1641948;40;20045;-78
2021/04/18 11:24:22;;;;;;;10.70;7.43;;;;;;;11.28;47.43;100176.97;1696747;40;22594;-78
2021/04/18 11:26:31;;;;;;;12.18;7.45;;;;;;;11.39;47.23;100176.75;1531334;40;22104;-78
2021/04/18 11:28:39;;;;;;;13.43;8.25;;;;;;;11.22;47.50;100171.19;1600717;40;22347;-77
2021/04/18 11:30:56;;;;;;;10.32;5.72;;;;;;;11.27;47.60;100170.75;1665100;40;20308;-80
2021/04/18 11:33:04;;;;;;;9.93;7.15;;;;;;;11.11;47.71;100170.53;1534584;40;23351;-79
2021/04/18 11:35:12;;;;;;;9.15;6.25;;;;;;;11.11;47.35;100165.19;1684555;40;22820;-77
2021/04/18 11:37:21;;;;;;;9.98;6.80;;;;;;;11.30;47.32;100164.25;1479890;40;22269;-77
2021/04/18 11:39:29;;;;;;;9.70;5.88;;;;;;;11.54;46.84;100161.06;1487241;40;22352;-77
2021/04/18 11:41:38;;;;;;;8.15;5.70;;;;;;;11.78;46.55;100157.81;1475662;40;22350;-78
2021/04/18 11:43:46;;;;;;;9.73;6.05;;;;;;;11.92;45.84;100159.16;1618165;40;22473;-78
2021/04/18 11:45:56;;;;;;;10.00;6.20;;;;;;;11.82;45.95;100155.69;1783060;40;20227;-79
2021/04/18 11:48:04;;;;;;;10.57;5.65;;;;;;;11.69;46.22;100159.59;1797117;40;20142;-79
2021/04/18 11:50:13;;;;;;;7.88;5.90;;;;;;;11.89;46.04;100151.44;1589982;40;22530;-80
2021/04/18 11:52:21;;;;;;;9.93;7.18;;;;;;;11.85;46.07;100148.19;1549308;40;22330;-79
2021/04/18 11:54:29;;;;;;;9.18;6.38;;;;;;;12.05;45.64;100147.28;1538075;40;22195;-78
2021/04/18 11:56:38;;;;;;;8.00;5.78;;;;;;;12.27;45.43;100152.19;1540974;40;22358;-79
2021/04/18 11:58:46;;;;;;;7.40;5.55;;;;;;;12.53;44.80;100146.03;1524111;40;23034;-78
2021/04/18 12:00:55;;;;;;;8.15;5.78;;;;;;;12.70;44.19;100143.47;1579826;40;22660;-78
2021/04/18 12:03:03;;;;;;;10.35;6.63;;;;;;;12.73;43.81;100145.84;1551143;40;22662;-78
2021/04/18 12:05:12;;;;;;;8.10;6.32;;;;;;;12.11;45.15;100136.78;1575601;40;22393;-79
2021/04/18 12:07:20;;;;;;;10.38;7.28;;;;;;;11.65;46.32;100142.13;1549173;40;21526;-77
2021/04/18 12:09:29;;;;;;;8.88;5.90;;;;;;;11.71;46.54;100146.03;1562260;40;23041;-79
2021/04/18 12:11:38;;;;;;;9.65;5.70;;;;;;;12.00;45.98;100145.88;1562047;40;22582;-77
2021/04/18 12:13:47;;;;;;;9.00;6.13;;;;;;;12.33;45.23;100134.63;1585959;40;22601;-78
2021/04/18 12:15:56;;;;;;;10.00;6.63;;;;;;;12.31;45.22;100140.16;1561951;40;20077;-77
2021/04/18 12:18:04;;;;;;;8.93;4.88;;;;;;;12.36;45.30;100137.00;1895528;40;20192;-78
2021/04/18 12:20:13;;;;;;;9.95;6.50;;;;;;;12.51;45.34;100131.94;1536190;40;22277;-78
2021/04/18 12:22:21;;;;;;;11.07;6.47;;;;;;;12.51;45.35;100131.09;1581485;40;22541;-79
2021/04/18 12:24:30;;;;;;;9.27;6.15;;;;;;;12.60;45.39;100132.84;1518026;40;22988;-80
2021/04/18 12:26:38;;;;;;;11.10;7.72;;;;;;;12.46;45.56;100129.72;1541404;40;22319;-77
2021/04/18 12:28:46;;;;;;;17.90;8.75;;;;;;;12.42;45.98;100138.22;1587220;40;22415;-78
2021/04/18 12:30:55;;;;;;;13.75;8.45;;;;;;;12.66;45.46;100139.44;1530122;40;22304;-78
2021/04/18 12:33:03;;;;;;;13.40;8.32;;;;;;;12.77;45.65;100133.78;1549425;40;23056;-78
2021/04/18 12:35:12;;;;;;;10.93;7.43;;;;;;;12.73;45.44;100137.81;1581089;40;22252;-78
2021/04/18 12:37:20;;;;;;;11.52;7.25;;;;;;;12.83;45.04;100135.88;1563832;40;23569;-77
2021/04/18 12:39:28;;;;;;;11.70;8.43;;;;;;;12.98;44.92;100144.19;1427893;40;22767;-77
2021/04/18 12:41:37;;;;;;;11.80;8.82;;;;;;;12.97;44.90;100134.44;1493280;40;22268;-77
2021/04/18 12:43:46;;;;;;;12.60;8.77;;;;;;;12.95;44.98;100131.06;1463356;40;22565;-78
2021/04/18 12:45:54;;;;;;;13.52;7.97;;;;;;;13.09;44.65;100130.47;1480004;40;22533;-77
2021/04/18 12:48:02;;;;;;;12.77;9.43;;;;;;;13.08;44.95;100127.97;1527317;40;22408;-77
2021/04/18 12:50:11;;;;;;;14.82;9.57;;;;;;;13.06;45.27;100127.28;1582028;40;22449;-79
2021/04/18 12:52:19;;;;;;;15.68;9.73;;;;;;;12.98;45.07;100129.91;1454617;40;22380;-78
2021/04/18 12:54:27;;;;;;;14.77;9.55;;;;;;;12.84;45.28;100126.81;1521284;40;20038;-77
2021/04/18 12:56:36;;;;;;;14.30;10.07;;;;;;;12.41;46.27;100136.53;1479315;40;22740;-78
2021/04/18 12:58:44;;;;;;;13.15;10.25;;;;;;;12.28;46.77;100128.91;1463383;40;22309;-77
2021/04/18 13:00:53;;;;;;;13.80;7.82;;;;;;;12.55;46.45;100136.00;1451791;40;22458;-78
2021/04/18 13:03:02;;;;;;;13.40;9.45;;;;;;;12.92;45.56;100134.91;1476975;40;22162;-77
2021/04/18 13:05:10;;;;;;;12.48;8.95;;;;;;;13.11;45.22;100122.28;1503559;40;22596;-77
2021/04/18 13:07:19;;;;;;;14.05;9.30;;;;;;;13.18;45.19;100128.69;1528711;40;22563;-78
2021/04/18 13:09:27;;;;;;;12.43;8.30;;;;;;;13.26;44.96;100119.84;1475533;40;21346;-78
2021/04/18 13:11:35;;;;;;;13.75;9.05;;;;;;;13.35;44.82;100116.19;1499117;40;22533;-78
2021/04/18 13:13:44;;;;;;;13.77;8.70;;;;;;;13.48;44.47;100121.16;1491793;40;22557;-76
2021/04/18 13:15:52;;;;;;;13.40;9.07;;;;;;;13.49;44.31;100120.16;1567436;40;22637;-78
2021/04/18 13:18:01;;;;;;;13.73;10.02;;;;;;;13.38;44.56;100118.53;1556577;40;22468;-79
2021/04/18 13:20:09;;;;;;;17.15;10.77;;;;;;;13.35;44.71;100112.66;1677745;40;22361;-79
2021/04/18 13:22:17;;;;;;;11.98;8.27;;;;;;;13.51;44.71;100112.75;1515610;40;22641;-78
2021/04/18 13:24:26;;;;;;;15.43;8.82;;;;;;;13.71;44.39;100107.97;1555873;40;22933;-78
2021/04/18 13:26:34;;;;;;;14.70;9.90;;;;;;;13.82;44.00;100114.03;1494095;40;22153;-79
2021/04/18 13:28:43;;;;;;;12.73;8.80;;;;;;;13.88;43.91;100108.84;1559196;40;22330;-79
2021/04/18 13:30:51;;;;;;;14.88;8.35;;;;;;;13.82;43.96;100114.03;1686002;40;22244;-79
2021/04/18 13:33:00;;;;;;;11.85;8.93;;;;;;;13.73;44.22;100099.72;1596921;40;21887;-79
2021/04/18 13:35:11;;;;;;;13.50;8.02;;;;;;;13.68;44.13;100102.91;1633703;40;22438;-78
2021/04/18 13:37:19;;;;;;;13.60;9.00;;;;;;;13.68;44.23;100102.06;1514002;40;22086;-78
2021/04/18 13:39:28;;;;;;;13.32;10.30;;;;;;;13.71;44.45;100107.09;1472686;40;21931;-79
2021/04/18 13:41:36;;;;;;;14.70;10.15;;;;;;;13.74;44.09;100106.78;1490510;40;22438;-80
2021/04/18 13:43:44;;;;;;;14.82;9.82;;;;;;;13.69;44.26;100103.75;1692125;40;22482;-78
2021/04/18 13:45:53;;;;;;;11.65;8.05;;;;;;;13.74;44.38;100101.41;1519611;40;23593;-80
2021/04/18 13:48:01;;;;;;;12.57;9.25;;;;;;;13.81;44.12;100096.22;1607033;40;22287;-77
2021/04/18 13:50:10;;;;;;;17.73;9.88;;;;;;;13.53;44.36;100100.00;1514007;40;22387;-79
2021/04/18 13:52:19;;;;;;;16.20;10.80;;;;;;;13.06;45.49;100098.59;1530429;40;22357;-77
2021/04/18 13:54:27;;;;;;;14.60;9.75;;;;;;;12.88;46.06;100100.53;1617726;40;22374;-77
2021/04/18 13:56:35;;;;;;;15.57;10.57;;;;;;;12.76;46.46;100095.41;1594446;40;21400;-78
2021/04/18 13:58:44;;;;;;;13.93;9.25;;;;;;;12.95;46.18;100099.69;1580083;40;23121;-80
2021/04/18 14:00:52;;;;;;;14.63;10.18;;;;;;;13.09;45.79;100094.75;1525979;40;22273;-77
2021/04/18 14:03:01;;;;;;;13.23;8.93;;;;;;;13.12;45.58;100086.41;1580722;40;22321;-77
2021/04/18 14:05:11;;;;;;;13.02;9.60;;;;;;;13.25;45.35;100092.13;1566473;40;22013;-78
2021/04/18 14:07:19;;;;;;;14.73;10.07;;;;;;;13.16;45.50;100085.06;1550202;40;22320;-79
2021/04/18 14:09:28;;;;;;;11.93;10.10;;;;;;;13.04;45.63;100092.56;1567052;40;22717;-78
2021/04/18 14:11:36;;;;;;;13.43;9.75;;;;;;;13.01;45.98;100083.97;1532077;40;22783;-78
2021/04/18 14:13:45;;;;;;;16.88;11.10;;;;;;;12.84;46.12;100083.91;1536870;40;22665;-78
2021/04/18 14:15:53;;;;;;;13.32;9.00;;;;;;;12.75;46.60;100079.50;1578389;40;23291;-77
2021/04/18 14:18:02;;;;;;;11.43;8.05;;;;;;;12.78;46.58;100087.19;1571297;40;22835;-80
2021/04/18 14:20:12;;;;;;;12.95;9.30;;;;;;;12.98;46.05;100079.78;1550451;40;22474;-78
2021/04/18 14:22:20;;;;;;;13.75;10.45;;;;;;;13.15;45.96;100075.31;1537509;40;23469;-80
2021/04/18 14:24:28;;;;;;;13.45;9.75;;;;;;;13.26;45.48;100071.53;1517702;40;23437;-78
2021/04/18 14:26:37;;;;;;;11.73;8.32;;;;;;;13.37;45.64;100079.25;1534755;40;23966;-80
2021/04/18 14:28:45;;;;;;;10.20;7.38;;;;;;;13.49;45.13;100076.31;1565461;40;22836;-78
2021/04/18 14:30:53;;;;;;;12.35;8.00;;;;;;;13.51;45.05;100072.47;1574619;40;24111;-78
2021/04/18 14:33:02;;;;;;;14.45;8.80;;;;;;;13.53;44.94;100078.50;1496329;40;23423;-79
2021/04/18 14:35:10;;;;;;;11.75;7.63;;;;;;;13.53;44.87;100075.81;1544262;40;22524;-79
2021/04/18 14:37:19;;;;;;;13.68;8.82;;;;;;;13.27;45.37;100070.53;1537219;40;21824;-79
2021/04/18 14:39:30;;;;;;;12.90;9.73;;;;;;;13.20;45.75;100067.63;1522771;40;22419;-80
2021/04/18 14:41:38;;;;;;;12.55;9.38;;;;;;;13.09;45.85;100068.75;1575118;40;22394;-80
2021/04/18 14:43:46;;;;;;;12.75;8.07;;;;;;;13.15;45.75;100071.81;1518496;40;22364;-80
2021/04/18 14:45:55;;;;;;;13.13;9.52;;;;;;;13.31;45.45;100066.50;1550568;40;22730;-79
2021/04/18 14:48:03;;;;;;;11.48;7.75;;;;;;;13.48;45.09;100063.88;1516527;40;21993;-79
2021/04/18 14:50:12;;;;;;;12.57;8.48;;;;;;;13.63;44.91;100061.41;1512540;40;22529;-77
2021/04/18 14:52:20;;;;;;;11.10;7.20;;;;;;;13.71;44.85;100066.81;1546976;40;22279;-78
2021/04/18 14:54:29;;;;;;;8.30;5.85;;;;;;;13.85;44.39;100063.47;1562875;40;22735;-80
2021/04/18 14:56:37;;;;;;;12.05;8.50;;;;;;;13.88;44.20;100057.78;1554797;40;21253;-79
2021/04/18 14:58:45;;;;;;;10.32;7.07;;;;;;;13.88;44.18;100057.78;1595298;40;21866;-78
2021/04/18 15:00:53;;;;;;;11.98;7.93;;;;;;;13.95;43.98;100055.25;1627947;40;22321;-77
2021/04/18 15:03:02;;;;;;;13.00;8.48;;;;;;;13.80;44.17;100057.75;1566089;40;23114;-78
2021/04/18 15:05:11;;;;;;;12.55;8.55;;;;;;;13.79;44.31;100053.38;1572294;40;22359;-78
2021/04/18 15:07:19;;;;;;;12.13;8.52;;;;;;;13.73;44.27;100057.59;1546414;40;22329;-79
2021/04/18 15:09:27;;;;;;;13.52;8.25;;;;;;;13.73;44.35;100065.66;1539407;40;22014;-79
2021/04/18 15:11:36;;;;;;;11.13;8.25;;;;;;;13.80;44.22;100052.38;1574987;40;22814;-79
2021/04/18 15:13:44;;;;;;;11.07;8.30;;;;;;;13.85;44.04;100057.25;1544177;40;22515;-79
2021/04/18 15:15:52;;;;;;;10.98;7.78;;;;;;;13.86;44.43;100059.78;1539759;40;22405;-80
2021/04/18 15:18:01;;;;;;;11.57;8.77;;;;;;;13.89;43.97;100058.63;1550693;40;22555;-79
2021/04/18 15:20:09;;;;;;;11.77;7.28;;;;;;;13.70;43.99;100057.06;1586596;40;22399;-79
2021/04/18 15:22:19;;;;;;;11.27;7.00;;;;;;;13.71;44.42;100064.97;1500634;40;23639;-79
2021/04/18 15:24:27;;;;;;;11.95;7.55;;;;;;;13.77;44.26;100057.25;1547291;40;22236;-79
2021/04/18 15:26:36;;;;;;;11.20;6.45;;;;;;;13.71;44.36;100058.75;1509224;40;23299;-79
2021/04/18 15:28:44;;;;;;;10.77;7.68;;;;;;;13.71;44.49;100058.75;1533411;40;22920;-79
2021/04/18 15:30:53;;;;;;;10.52;6.07;;;;;;;13.70;44.45;100062.44;1537120;40;21005;-79
2021/04/18 15:33:01;;;;;;;11.32;7.55;;;;;;;13.67;44.52;100060.09;1517639;40;22559;-79
2021/04/18 15:35:10;;;;;;;12.90;8.05;;;;;;;13.64;44.37;100053.22;1599230;40;22233;-79
2021/04/18 15:37:18;;;;;;;8.88;6.55;;;;;;;13.56;44.49;100062.09;1527977;40;22413;-79
2021/04/18 15:39:27;;;;;;;8.57;6.22;;;;;;;13.54;44.43;100057.88;1516054;40;22587;-78
2021/04/18 15:41:35;;;;;;;13.88;7.97;;;;;;;13.53;44.55;100062.41;1490337;40;22504;-78
2021/04/18 15:43:44;;;;;;;11.70;8.45;;;;;;;13.41;44.86;100059.19;1548316;40;22275;-80
2021/04/18 15:45:52;;;;;;;11.10;8.10;;;;;;;13.27;45.02;100062.47;1521996;40;21454;-79
2021/04/18 15:48:01;;;;;;;13.13;9.07;;;;;;;13.33;44.98;100066.31;1489065;40;22480;-78
2021/04/18 15:50:09;;;;;;;14.68;8.82;;;;;;;13.29;45.16;100062.31;1495291;40;22365;-79
2021/04/18 15:52:18;;;;;;;13.73;9.18;;;;;;;13.26;45.08;100066.16;1523075;40;22234;-78
2021/04/18 15:54:26;;;;;;;10.40;6.82;;;;;;;13.22;45.41;100060.28;1494537;40;22237;-79
2021/04/18 15:56:35;;;;;;;9.32;6.78;;;;;;;13.30;45.28;100061.31;1526620;40;21926;-78
2021/04/18 15:58:44;;;;;;;11.07;7.68;;;;;;;13.34;45.03;100060.81;1545271;40;20049;-78
2021/04/18 16:00:52;;;;;;;9.65;7.25;;;;;;;13.35;45.04;100067.00;1536918;40;22151;-78
2021/04/18 16:03:01;;;;;;;11.73;7.03;;;;;;;13.33;45.33;100060.94;1548256;40;22564;-77
2021/04/18 16:05:09;;;;;;;8.48;5.80;;;;;;;13.38;45.30;100066.69;1531818;40;23423;-79
2021/04/18 16:07:18;;;;;;;9.77;7.05;;;;;;;13.46;45.26;100061.38;1517650;40;22627;-79
2021/04/18 16:09:26;;;;;;;10.40;7.28;;;;;;;13.42;45.16;100060.00;1521223;40;22403;-78
2021/04/18 16:11:35;;;;;;;11.75;7.65;;;;;;;13.25;45.33;100059.94;1526249;40;22778;-78
2021/04/18 16:13:43;;;;;;;10.80;7.85;;;;;;;13.18;45.78;100058.91;1543971;40;22421;-79
2021/04/18 16:15:51;;;;;;;10.15;6.72;;;;;;;13.21;45.61;100063.97;1523467;40;21123;-78
2021/04/18 16:18:00;;;;;;;12.15;8.60;;;;;;;13.25;45.57;100059.94;1562960;40;22365;-77
2021/04/18 16:20:09;;;;;;;11.18;8.07;;;;;;;13.22;45.28;100062.97;1518165;40;22523;-78
2021/04/18 16:22:17;;;;;;;13.88;7.45;;;;;;;13.23;45.57;100059.25;1559998;40;22124;-77
2021/04/18 16:24:25;;;;;;;10.45;7.07;;;;;;;13.29;45.31;100064.97;1535830;40;22149;-79
2021/04/18 16:26:34;;;;;;;12.07;7.82;;;;;;;13.32;45.38;100067.34;1605322;40;22264;-79
2021/04/18 16:28:43;;;;;;;11.25;8.30;;;;;;;13.33;45.29;100061.81;1456194;40;22483;-80
2021/04/18 16:30:51;;;;;;;11.65;7.78;;;;;;;13.32;45.37;100064.66;1498584;40;23478;-77
2021/04/18 16:32:59;;;;;;;8.35;6.22;;;;;;;13.35;45.59;100067.00;1549449;40;22193;-77
2021/04/18 16:35:08;;;;;;;10.15;8.07;;;;;;;13.33;45.54;100059.13;1487161;40;22624;-80
2021/04/18 16:37:17;;;;;;;10.43;7.85;;;;;;;13.32;45.64;100064.66;1538903;40;22819;-77
2021/04/18 16:39:25;;;;;;;10.25;6.07;;;;;;;13.34;45.32;100068.00;1511685;40;22845;-79
2021/04/18 16:41:34;;;;;;;10.90;6.57;;;;;;;13.36;45.57;100076.75;1519341;40;23360;-76
2021/04/18 16:43:42;;;;;;;8.68;6.10;;;;;;;13.40;45.36;100078.16;1565132;40;22550;-78
2021/04/18 16:45:53;;;;;;;10.63;7.38;;;;;;;13.38;45.19;100077.44;1545063;40;22174;-77
2021/04/18 16:48:02;;;;;;;9.52;7.25;;;;;;;13.33;45.52;100082.44;1532111;40;21315;-80
2021/04/18 16:50:11;;;;;;;12.95;7.85;;;;;;;13.21;45.57;100080.06;1553511;40;22333;-77
2021/04/18 16:52:19;;;;;;;11.13;8.35;;;;;;;13.14;45.84;100073.63;1539217;40;22643;-79
2021/04/18 16:54:28;;;;;;;9.02;6.55;;;;;;;12.92;46.47;100078.56;1530912;40;22378;-79
2021/04/18 16:56:36;;;;;;;10.15;6.47;;;;;;;12.99;46.28;100084.13;1588944;40;21286;-77
2021/04/18 16:58:45;;;;;;;10.98;6.40;;;;;;;13.08;46.13;100079.66;1517953;40;22316;-77
2021/04/18 17:00:53;;;;;;;10.00;6.55;;;;;;;13.11;46.23;100082.03;1513545;40;22728;-79
2021/04/18 17:03:02;;;;;;;9.43;6.95;;;;;;;13.14;46.07;100081.69;1474053;40;23385;-79
2021/04/18 17:05:11;;;;;;;10.35;7.13;;;;;;;13.13;46.16;100084.53;1604305;40;23418;-77
2021/04/18 17:07:19;;;;;;;11.32;8.05;;;;;;;13.03;46.32;100088.19;1604903;40;22225;-77
2021/04/18 17:09:28;;;;;;;12.15;8.05;;;;;;;12.93;46.81;100088.31;1618933;40;21494;-78
2021/04/18 17:11:36;;;;;;;11.43;8.20;;;;;;;13.01;46.81;100092.03;1512611;40;22186;-78
2021/04/18 17:13:45;;;;;;;8.65;5.47;;;;;;;12.97;46.58;100098.72;1561287;40;22398;-77
2021/04/18 17:15:53;;;;;;;13.20;6.90;;;;;;;12.98;46.62;100095.03;1579647;40;22621;-79
2021/04/18 17:18:02;;;;;;;12.63;8.60;;;;;;;12.98;47.05;100095.88;1577344;40;20061;-78
2021/04/18 17:20:11;;;;;;;12.43;8.68;;;;;;;12.88;47.26;100095.97;1532561;40;21098;-78
2021/04/18 17:22:19;;;;;;;15.43;9.25;;;;;;;12.78;47.57;100089.88;1539702;40;22108;-77
2021/04/18 17:24:27;;;;;;;13.15;9.35;;;;;;;12.71;47.80;100102.25;1659209;40;23385;-79
2021/04/18 17:26:36;;;;;;;14.20;8.32;;;;;;;12.60;48.07;100096.13;1615493;40;22442;-80
2021/04/18 17:28:44;;;;;;;15.93;9.07;;;;;;;12.61;47.97;100105.03;1556664;40;23066;-77
2021/04/18 17:30:53;;;;;;;14.35;9.20;;;;;;;12.56;48.33;100091.25;1528299;40;22422;-78
2021/04/18 17:33:01;;;;;;;14.35;10.27;;;;;;;12.47;48.12;100099.22;1635029;40;22317;-78
2021/04/18 17:35:10;;;;;;;13.15;8.63;;;;;;;12.45;48.61;100103.91;1512334;40;22517;-77
2021/04/18 17:37:19;;;;;;;12.40;8.40;;;;;;;12.46;48.45;100102.09;1600500;40;22528;-78
2021/04/18 17:39:27;;;;;;;15.90;9.80;;;;;;;12.45;48.48;100098.53;1567146;40;21669;-80
2021/04/18 17:41:36;;;;;;;17.73;10.20;;;;;;;12.42;48.85;100106.06;1532031;40;22777;-79
2021/04/18 17:43:45;;;;;;;14.50;9.85;;;;;;;12.36;49.37;100106.69;1501201;40;22426;-78
2021/04/18 17:45:53;;;;;;;14.00;10.13;;;;;;;12.35;49.47;100105.00;1497729;40;22370;-78
2021/04/18 17:48:04;;;;;;;14.13;9.63;;;;;;;12.29;49.33;100109.97;1514141;40;22358;-78
2021/04/18 17:50:13;;;;;;;17.20;10.10;;;;;;;12.22;49.51;100111.59;1537639;40;22124;-79
2021/04/18 17:52:22;;;;;;;12.13;8.25;;;;;;;12.17;49.71;100114.72;2212011;40;20058;-79
2021/04/18 17:54:30;;;;;;;14.32;10.13;;;;;;;12.15;49.83;100107.84;1561916;40;21307;-78
2021/04/18 17:56:39;;;;;;;14.68;10.05;;;;;;;12.16;50.06;100113.03;1546223;40;22268;-77
2021/04/18 17:58:48;;;;;;;13.10;9.05;;;;;;;12.17;50.03;100112.03;1587132;40;22815;-78
2021/04/18 18:00:56;;;;;;;16.13;10.38;;;;;;;12.13;50.10;100107.16;1551833;40;22003;-78
2021/04/18 18:03:05;;;;;;;11.73;9.75;;;;;;;12.10;50.01;100112.81;1516459;40;22178;-77
2021/04/18 18:05:13;;;;;;;12.48;9.60;;;;;;;12.10;50.63;100115.47;1534067;40;22378;-77
2021/04/18 18:07:22;;;;;;;18.08;9.88;;;;;;;12.10;50.67;100110.13;1546552;40;21128;-78
2021/04/18 18:11:38;;;;;;;14.18;10.00;;;;;;;12.07;50.89;100110.44;1571196;40;22446;-80
2021/04/18 18:13:47;;;;;;;12.68;8.63;;;;;;;12.09;51.16;100111.97;1562783;40;22536;-80
2021/04/18 18:15:55;;;;;;;13.63;10.23;;;;;;;12.14;51.39;100115.03;1590938;40;22398;-77
2021/04/18 18:18:04;;;;;;;17.10;9.90;;;;;;;12.15;51.41;100118.56;1585401;40;22366;-78
2021/04/18 18:20:13;;;;;;;12.63;9.48;;;;;;;12.15;51.37;100115.88;1548009;40;21374;-77
2021/04/18 18:22:22;;;;;;;17.20;10.98;;;;;;;12.10;51.40;100118.16;1545951;40;22642;-81
2021/04/18 18:24:30;;;;;;;15.00;10.55;;;;;;;12.12;51.41;100122.41;1423914;40;22224;-78
2021/04/18 18:26:38;;;;;;;13.98;9.32;;;;;;;12.17;51.18;100130.81;1556441;40;21891;-79
2021/04/18 18:28:47;;;;;;;15.70;9.88;;;;;;;12.24;51.53;100125.69;1536856;40;22646;-81
2021/04/18 18:30:56;;;;;;;17.63;10.52;;;;;;;12.30;51.40;100133.09;1488415;40;22393;-80
2021/04/18 18:33:05;;;;;;;12.50;8.15;;;;;;;12.30;51.69;100118.88;1511476;40;20125;-79
2021/04/18 18:35:14;;;;;;;11.82;8.13;;;;;;;12.23;52.14;100132.03;1552223;40;22772;-78
2021/04/18 18:37:24;;;;;;;8.63;7.10;;;;;;;12.21;52.69;100125.97;1564338;40;22340;-79
2021/04/18 18:39:33;;;;;;;11.23;8.05;;;;;;;12.13;53.30;100136.63;1523410;40;22767;-79
2021/04/18 18:41:42;;;;;;;9.80;7.00;;;;;;;12.07;53.82;100127.34;1605845;40;22301;-78
2021/04/18 18:43:51;;;;;;;10.35;7.22;;;;;;;12.01;54.00;100131.47;1564695;40;21394;-81
2021/04/18 18:45:59;;;;;;;9.00;6.18;;;;;;;12.00;54.49;100135.16;1582582;40;20061;-80
2021/04/18 18:48:08;;;;;;;9.30;6.45;;;;;;;12.14;54.10;100136.47;1547019;40;22269;-78
2021/04/18 18:50:16;;;;;;;16.85;12.75;;;;;;;12.25;54.43;100134.56;1577859;40;22360;-78
2021/04/18 18:52:33;;;;;;;14.82;9.88;;;;;;;12.29;54.33;100139.44;1540747;40;22919;-78
2021/04/18 18:54:42;;;;;;;11.38;8.18;;;;;;;12.33;54.27;100137.31;1543163;40;23194;-78
2021/04/18 18:56:51;;;;;;;12.20;8.10;;;;;;;12.37;54.07;100132.50;1548421;40;22717;-79
2021/04/18 18:58:59;;;;;;;10.35;6.40;;;;;;;12.42;53.92;100130.19;1558462;40;24039;-78
2021/04/18 19:01:08;;;;;;;11.20;7.93;;;;;;;12.34;54.00;100130.94;1558665;40;22133;-81
2021/04/18 19:03:16;;;;;;;9.70;6.75;;;;;;;12.23;54.29;100131.22;1541336;40;22079;-79
2021/04/18 19:05:25;;;;;;;12.38;9.27;;;;;;;12.11;54.42;100141.28;1587623;40;22548;-79
2021/04/18 19:07:34;;;;;;;9.73;7.00;;;;;;;12.01;55.05;100141.38;1549342;40;22327;-78
2021/04/18 19:09:43;;;;;;;9.88;7.53;;;;;;;12.10;54.77;100142.28;1546681;40;21254;-79
2021/04/18 19:11:51;;;;;;;10.48;6.80;;;;;;;12.16;54.86;100147.06;1539300;40;22719;-78
2021/04/18 19:14:00;;;;;;;10.52;6.78;;;;;;;12.16;54.42;100149.72;1540179;40;22268;-79
2021/04/18 19:16:08;;;;;;;13.02;8.82;;;;;;;12.17;54.58;100146.06;1566544;40;23531;-79
2021/04/18 19:18:16;;;;;;;10.55;6.40;;;;;;;12.18;54.72;100147.75;1648247;40;22359;-79
2021/04/18 19:20:25;;;;;;;10.75;6.93;;;;;;;12.17;54.85;100154.09;1674024;40;23388;-79
2021/04/18 19:22:34;;;;;;;10.80;7.32;;;;;;;12.08;54.76;100153.16;1668521;40;23903;-79
2021/04/18 19:24:42;;;;;;;9.80;7.38;;;;;;;12.08;54.94;100153.16;1691040;40;22482;-80
2021/04/18 19:26:51;;;;;;;9.13;6.18;;;;;;;12.07;54.94;100150.66;2081830;40;21918;-79
2021/04/18 19:28:59;;;;;;;12.00;7.28;;;;;;;12.08;55.03;100157.69;1634597;40;22449;-79
2021/04/18 19:31:08;;;;;;;10.50;7.75;;;;;;;12.02;54.94;100159.97;1680193;40;22433;-80
2021/04/18 19:33:16;;;;;;;8.95;6.05;;;;;;;12.06;54.91;100157.81;1614515;40;22390;-79
2021/04/18 19:35:25;;;;;;;6.95;4.05;;;;;;;12.07;54.82;100158.69;2218285;40;20208;-79
2021/04/18 19:37:33;;;;;;;9.27;6.45;;;;;;;12.06;55.06;100160.50;1635758;40;22494;-80
2021/04/18 19:39:42;;;;;;;8.25;5.43;;;;;;;12.05;55.05;100158.81;1617792;40;22598;-79
2021/04/18 19:41:50;;;;;;;10.57;6.50;;;;;;;12.07;55.33;100166.72;1624621;40;22513;-79
2021/04/18 19:43:59;;;;;;;9.93;6.00;;;;;;;12.08;55.23;100158.53;1634480;40;21416;-78
2021/04/18 19:46:07;;;;;;;8.32;5.80;;;;;;;12.10;55.38;100153.84;1611806;40;22297;-79
2021/04/18 19:48:16;;;;;;;10.88;7.50;;;;;;;12.02;55.69;100159.97;1615668;40;22304;-79
2021/04/18 19:50:25;;;;;;;9.85;7.15;;;;;;;11.90;56.31;100155.81;1617159;40;22681;-80
2021/04/18 19:52:33;;;;;;;10.45;7.53;;;;;;;11.78;56.92;100157.81;1606252;40;22146;-80
2021/04/18 19:54:42;;;;;;;11.05;7.80;;;;;;;11.65;58.07;100152.84;1629696;40;22270;-79
2021/04/18 19:56:50;;;;;;;11.55;8.82;;;;;;;11.45;58.76;100153.91;1623525;40;23219;-78
2021/04/18 19:58:59;;;;;;;10.77;7.82;;;;;;;11.35;59.41;100149.44;1628415;40;22481;-79
2021/04/18 20:01:07;;;;;;;13.25;8.63;;;;;;;11.31;59.28;100147.22;1626694;40;22418;-79
2021/04/18 20:03:16;;;;;;;11.68;9.13;;;;;;;11.26;59.68;100154.84;1621372;40;22697;-79
